Time;durP1;ratioP1;P1;durP2;ratioP2;P2;SDS_P1;SDS_P2;PMS_P1;PMS_P2;Temp;Humidity;BMP_temperature;BMP_pressure;BME280_temperature;BME280_humidity;BME280_pressure;Samples;Min_cycle;Max_cycle;Signal;HPM_P1;HPM_P2
2023/12/27 00:00:39;;;;;;;0.10;0.10;;;;;;;;;;6124414;23;20041;-78
2023/12/27 00:03:06;;;;;;;0.10;0.10;;;;;;;;;;6123273;23;20027;-78
2023/12/27 00:05:32;;;;;;;0.17;0.17;;;;;;;;;;6124193;23;20065;-79
2023/12/27 00:07:59;;;;;;;0.10;0.10;;;;;;;;;;6124599;23;20101;-78
2023/12/27 00:10:25;;;;;;;0.10;0.10;;;;;;;;;;6124777;23;20026;-79
2023/12/27 00:12:51;;;;;;;0.10;0.10;;;;;;;;;;6124556;23;20651;-78
2023/12/27 00:15:18;;;;;;;0.10;0.10;;;;;;;;;;6124635;23;20076;-78
2023/12/27 00:17:44;;;;;;;2.13;2.03;;;;;;;;;;6125141;23;20101;-79
2023/12/27 00:20:11;;;;;;;0.10;0.10;;;;;;;;;;6124690;23;20110;-78
2023/12/27 00:22:37;;;;;;;0.10;0.10;;;;;;;;;;6124353;23;20049;-78
2023/12/27 00:25:04;;;;;;;0.10;0.10;;;;;;;;;;6124346;23;20549;-78
2023/12/27 00:27:30;;;;;;;0.10;0.10;;;;;;;;;;6124930;23;20074;-78
2023/12/27 00:29:57;;;;;;;0.10;0.10;;;;;;;;;;6124876;23;20103;-77
2023/12/27 00:32:23;;;;;;;0.10;0.10;;;;;;;;;;6124651;23;20030;-78
2023/12/27 00:34:50;;;;;;;0.10;0.10;;;;;;;;;;6124367;23;20030;-78
2023/12/27 00:37:16;;;;;;;0.10;0.10;;;;;;;;;;6124854;23;20030;-79
2023/12/27 00:39:44;;;;;;;0.10;0.10;;;;;;;;;;6125128;23;20026;-78
2023/12/27 00:42:11;;;;;;;0.10;0.10;;;;;;;;;;6124265;23;20051;-78
2023/12/27 00:44:37;;;;;;;0.10;0.10;;;;;;;;;;6124172;23;20086;-79
2023/12/27 00:47:04;;;;;;;0.10;0.10;;;;;;;;;;6124493;23;20022;-78
2023/12/27 00:49:30;;;;;;;0.10;0.10;;;;;;;;;;6125550;23;20106;-78
2023/12/27 00:51:56;;;;;;;0.10;0.10;;;;;;;;;;6125041;23;20042;-78
2023/12/27 00:54:23;;;;;;;0.10;0.10;;;;;;;;;;6124766;23;20030;-78
2023/12/27 00:56:49;;;;;;;0.00;0.00;;;;;;;;;;6099488;23;20053;-78
2023/12/27 00:59:16;;;;;;;0.10;0.10;;;;;;;;;;6125241;23;20113;-79
2023/12/27 01:01:43;;;;;;;0.10;0.10;;;;;;;;;;6126141;23;20030;-79
2023/12/27 01:04:10;;;;;;;0.10;0.10;;;;;;;;;;6098379;23;20118;-77
2023/12/27 01:06:36;;;;;;;0.10;0.10;;;;;;;;;;6124984;23;20101;-79
2023/12/27 01:09:03;;;;;;;0.10;0.10;;;;;;;;;;6124259;23;20109;-79
2023/12/27 01:11:30;;;;;;;0.20;0.20;;;;;;;;;;6124213;23;20034;-78
2023/12/27 01:13:56;;;;;;;0.10;0.10;;;;;;;;;;6123150;23;20502;-77
2023/12/27 01:16:23;;;;;;;0.10;0.10;;;;;;;;;;6124919;23;20082;-78
2023/12/27 01:18:50;;;;;;;0.10;0.10;;;;;;;;;;6125411;23;20031;-78
2023/12/27 01:21:16;;;;;;;0.10;0.10;;;;;;;;;;6124616;23;20026;-78
2023/12/27 01:23:43;;;;;;;0.10;0.10;;;;;;;;;;6124221;23;20011;-78
2023/12/27 01:26:09;;;;;;;0.10;0.10;;;;;;;;;;6123459;23;20078;-79
2023/12/27 01:28:36;;;;;;;0.10;0.10;;;;;;;;;;6099967;23;20026;-79
2023/12/27 01:31:02;;;;;;;0.10;0.10;;;;;;;;;;6124082;23;20030;-80
2023/12/27 01:33:29;;;;;;;0.10;0.10;;;;;;;;;;6124787;23;20471;-79
2023/12/27 01:35:56;;;;;;;0.10;0.10;;;;;;;;;;6123488;23;20074;-80
2023/12/27 01:38:22;;;;;;;0.10;0.10;;;;;;;;;;6124854;23;20114;-79
2023/12/27 01:40:49;;;;;;;0.10;0.10;;;;;;;;;;6125010;23;20026;-80
2023/12/27 01:43:15;;;;;;;0.10;0.10;;;;;;;;;;6124933;23;20031;-80
2023/12/27 01:45:42;;;;;;;0.10;0.10;;;;;;;;;;6124243;23;20466;-80
2023/12/27 01:48:09;;;;;;;0.10;0.10;;;;;;;;;;6125036;23;20153;-80
2023/12/27 01:50:38;;;;;;;0.10;0.10;;;;;;;;;;6101507;23;20053;-80
2023/12/27 01:53:04;;;;;;;0.10;0.10;;;;;;;;;;6128019;23;20489;-80
2023/12/27 01:55:31;;;;;;;0.10;0.10;;;;;;;;;;6128446;23;20022;-80
2023/12/27 01:57:58;;;;;;;0.52;0.52;;;;;;;;;;6128792;23;20030;-80
2023/12/27 02:00:24;;;;;;;0.10;0.10;;;;;;;;;;6127690;23;20026;-80
2023/12/27 02:02:51;;;;;;;0.10;0.10;;;;;;;;;;6127202;23;20030;-80
2023/12/27 02:05:20;;;;;;;0.10;0.10;;;;;;;;;;6102198;23;20031;-80
2023/12/27 02:07:47;;;;;;;0.10;0.10;;;;;;;;;;6127430;23;20031;-80
2023/12/27 02:10:13;;;;;;;1.65;1.55;;;;;;;;;;6127391;23;20090;-79
2023/12/27 02:12:40;;;;;;;0.10;0.10;;;;;;;;;;6127120;23;20112;-80
2023/12/27 02:15:06;;;;;;;0.10;0.10;;;;;;;;;;6125788;23;20014;-80
2023/12/27 02:17:33;;;;;;;0.10;0.10;;;;;;;;;;6127316;23;20035;-80
2023/12/27 02:20:00;;;;;;;0.10;0.10;;;;;;;;;;6127113;23;20026;-80
2023/12/27 02:22:27;;;;;;;0.10;0.10;;;;;;;;;;6127730;23;20030;-80
2023/12/27 02:24:53;;;;;;;0.10;0.10;;;;;;;;;;6101155;23;20031;-80
2023/12/27 02:27:20;;;;;;;0.10;0.10;;;;;;;;;;6126781;23;20037;-80
2023/12/27 02:29:47;;;;;;;0.10;0.10;;;;;;;;;;6126311;23;20502;-79
2023/12/27 02:32:13;;;;;;;0.10;0.10;;;;;;;;;;6126546;23;20030;-80
2023/12/27 02:34:40;;;;;;;1.35;1.35;;;;;;;;;;6126307;23;20038;-80
2023/12/27 02:37:06;;;;;;;0.10;0.10;;;;;;;;;;6126041;23;20114;-80
2023/12/27 02:39:33;;;;;;;0.10;0.10;;;;;;;;;;6126021;23;20030;-80
2023/12/27 02:41:59;;;;;;;0.10;0.10;;;;;;;;;;6126396;23;20018;-80
2023/12/27 02:44:26;;;;;;;0.10;0.10;;;;;;;;;;6125043;23;20035;-80
2023/12/27 02:46:53;;;;;;;0.32;0.32;;;;;;;;;;6122125;23;20102;-80
2023/12/27 02:49:19;;;;;;;0.10;0.10;;;;;;;;;;6125057;23;20897;-80
2023/12/27 02:51:47;;;;;;;0.13;0.13;;;;;;;;;;6124269;23;20453;-80
2023/12/27 02:54:13;;;;;;;0.10;0.10;;;;;;;;;;6123845;23;20030;-80
2023/12/27 02:56:40;;;;;;;0.10;0.10;;;;;;;;;;6124499;23;20081;-80
2023/12/27 02:59:08;;;;;;;0.10;0.10;;;;;;;;;;6124316;23;20110;-80
2023/12/27 03:01:35;;;;;;;0.10;0.10;;;;;;;;;;6124274;23;20030;-80
2023/12/27 03:04:01;;;;;;;8.68;3.95;;;;;;;;;;6123959;23;20423;-80
2023/12/27 03:06:28;;;;;;;0.10;0.10;;;;;;;;;;6124694;23;20034;-80
2023/12/27 03:08:54;;;;;;;0.10;0.10;;;;;;;;;;6124323;23;20030;-79
2023/12/27 03:11:21;;;;;;;0.10;0.10;;;;;;;;;;6124774;23;20027;-80
2023/12/27 03:13:48;;;;;;;0.10;0.10;;;;;;;;;;6122957;23;20023;-80
2023/12/27 03:16:17;;;;;;;1.55;1.08;;;;;;;;;;6123495;23;20497;-80
2023/12/27 03:18:43;;;;;;;0.10;0.10;;;;;;;;;;6123451;23;20447;-80
2023/12/27 03:21:10;;;;;;;0.25;0.25;;;;;;;;;;6123498;23;20027;-80
2023/12/27 03:23:36;;;;;;;0.10;0.10;;;;;;;;;;6122479;23;20031;-80
2023/12/27 03:26:02;;;;;;;0.10;0.10;;;;;;;;;;6124295;23;20518;-79
2023/12/27 03:28:29;;;;;;;0.10;0.10;;;;;;;;;;6124574;23;20033;-80
2023/12/27 03:30:56;;;;;;;0.10;0.10;;;;;;;;;;6125464;23;20035;-80
2023/12/27 03:33:23;;;;;;;0.20;0.20;;;;;;;;;;6125840;23;20469;-80
2023/12/27 03:35:49;;;;;;;0.10;0.10;;;;;;;;;;6098869;23;20400;-80
2023/12/27 03:38:16;;;;;;;0.10;0.10;;;;;;;;;;6125323;23;20022;-80
2023/12/27 03:40:42;;;;;;;0.10;0.10;;;;;;;;;;6123093;23;20026;-80
2023/12/27 03:43:08;;;;;;;0.10;0.10;;;;;;;;;;6125169;23;20069;-80
2023/12/27 03:45:36;;;;;;;0.10;0.10;;;;;;;;;;6125118;23;20034;-80
2023/12/27 03:48:02;;;;;;;0.15;0.15;;;;;;;;;;6125674;23;20033;-79
2023/12/27 03:50:29;;;;;;;0.10;0.10;;;;;;;;;;6123609;23;20031;-79
2023/12/27 03:52:56;;;;;;;0.10;0.10;;;;;;;;;;6126155;23;20030;-79
2023/12/27 03:55:23;;;;;;;0.10;0.10;;;;;;;;;;6125673;23;20031;-80
2023/12/27 03:57:50;;;;;;;0.10;0.10;;;;;;;;;;6101224;23;20014;-80
2023/12/27 04:00:16;;;;;;;0.10;0.10;;;;;;;;;;6127773;23;20090;-80
2023/12/27 04:02:43;;;;;;;0.10;0.10;;;;;;;;;;6126476;23;20030;-80
2023/12/27 04:05:09;;;;;;;0.10;0.10;;;;;;;;;;6126733;23;20036;-80
2023/12/27 04:07:36;;;;;;;0.10;0.10;;;;;;;;;;6125802;23;20526;-80
2023/12/27 04:10:03;;;;;;;1.48;1.38;;;;;;;;;;6127704;23;20037;-80
2023/12/27 04:12:29;;;;;;;0.10;0.10;;;;;;;;;;6127497;23;20026;-80
2023/12/27 04:14:55;;;;;;;0.10;0.10;;;;;;;;;;6127568;23;20034;-80
2023/12/27 04:17:22;;;;;;;1.98;1.73;;;;;;;;;;6127844;23;20845;-80
2023/12/27 04:19:48;;;;;;;0.85;0.85;;;;;;;;;;6125906;23;20085;-80
2023/12/27 04:22:15;;;;;;;0.10;0.10;;;;;;;;;;6127325;23;20031;-80
2023/12/27 04:24:41;;;;;;;0.55;0.55;;;;;;;;;;6126425;23;20026;-79
2023/12/27 04:27:08;;;;;;;0.10;0.10;;;;;;;;;;6128277;23;20026;-80
2023/12/27 04:29:34;;;;;;;1.45;1.08;;;;;;;;;;6127258;23;20041;-80
2023/12/27 04:32:00;;;;;;;0.25;0.25;;;;;;;;;;6127997;23;20030;-80
2023/12/27 04:34:27;;;;;;;0.10;0.10;;;;;;;;;;6127862;23;20058;-80
2023/12/27 04:36:53;;;;;;;0.10;0.10;;;;;;;;;;6126641;23;20106;-80
2023/12/27 04:39:20;;;;;;;0.10;0.10;;;;;;;;;;6127117;23;20110;-80
2023/12/27 04:41:46;;;;;;;0.80;0.80;;;;;;;;;;6127034;23;20769;-80
2023/12/27 04:44:13;;;;;;;0.10;0.10;;;;;;;;;;6127032;23;20494;-80
2023/12/27 04:46:39;;;;;;;0.10;0.10;;;;;;;;;;6127228;23;20038;-80
2023/12/27 04:49:08;;;;;;;0.10;0.10;;;;;;;;;;6127185;23;20034;-80
2023/12/27 04:51:34;;;;;;;0.47;0.47;;;;;;;;;;6125988;23;20538;-80
2023/12/27 04:54:02;;;;;;;0.22;0.22;;;;;;;;;;6127559;23;20019;-80
2023/12/27 04:56:28;;;;;;;0.10;0.10;;;;;;;;;;6127203;23;20058;-78
2023/12/27 04:58:55;;;;;;;0.13;0.13;;;;;;;;;;6124837;23;20030;-80
2023/12/27 05:01:21;;;;;;;0.10;0.10;;;;;;;;;;6124269;23;20090;-80
2023/12/27 05:03:48;;;;;;;0.52;0.52;;;;;;;;;;6123535;23;20030;-78
2023/12/27 05:06:15;;;;;;;0.10;0.10;;;;;;;;;;6124109;23;20173;-78
2023/12/27 05:08:41;;;;;;;0.10;0.10;;;;;;;;;;6124193;23;20090;-78
2023/12/27 05:11:12;;;;;;;0.10;0.10;;;;;;;;;;6124415;23;20026;-78
2023/12/27 05:13:39;;;;;;;0.10;0.10;;;;;;;;;;6124111;23;20038;-78
2023/12/27 05:16:09;;;;;;;0.32;0.32;;;;;;;;;;6123094;23;20189;-78
2023/12/27 05:18:39;;;;;;;0.20;0.20;;;;;;;;;;6123996;23;20156;-80
2023/12/27 05:21:06;;;;;;;0.17;0.17;;;;;;;;;;6124220;23;20113;-78
2023/12/27 05:23:33;;;;;;;0.10;0.10;;;;;;;;;;6123522;23;20029;-79
2023/12/27 05:25:59;;;;;;;1.45;0.52;;;;;;;;;;6123639;23;20113;-78
2023/12/27 05:28:26;;;;;;;0.30;0.30;;;;;;;;;;6123868;23;20030;-78
2023/12/27 05:30:52;;;;;;;0.10;0.10;;;;;;;;;;6124006;23;20416;-80
2023/12/27 05:33:20;;;;;;;0.10;0.10;;;;;;;;;;6123612;23;20498;-79
2023/12/27 05:35:47;;;;;;;0.10;0.10;;;;;;;;;;6123431;23;20035;-79
2023/12/27 05:38:13;;;;;;;0.10;0.10;;;;;;;;;;6123655;23;20098;-79
2023/12/27 05:40:40;;;;;;;0.10;0.10;;;;;;;;;;6098508;23;20470;-78
2023/12/27 05:43:06;;;;;;;1.67;1.45;;;;;;;;;;6122758;23;20443;-78
2023/12/27 05:45:33;;;;;;;0.10;0.10;;;;;;;;;;6123016;23;20026;-78
2023/12/27 05:47:59;;;;;;;0.10;0.10;;;;;;;;;;6122856;23;20034;-78
2023/12/27 05:50:26;;;;;;;0.10;0.10;;;;;;;;;;6123679;23;20031;-78
2023/12/27 05:52:54;;;;;;;0.10;0.10;;;;;;;;;;6122533;23;20026;-79
2023/12/27 05:55:20;;;;;;;0.10;0.10;;;;;;;;;;6122396;23;20519;-78
2023/12/27 05:57:47;;;;;;;0.10;0.10;;;;;;;;;;6122805;23;20030;-78
2023/12/27 06:00:16;;;;;;;0.10;0.10;;;;;;;;;;6123096;23;20034;-81
2023/12/27 06:02:42;;;;;;;0.10;0.10;;;;;;;;;;6122951;23;20030;-79
2023/12/27 06:05:12;;;;;;;0.20;0.20;;;;;;;;;;6122484;23;20485;-79
2023/12/27 06:07:38;;;;;;;0.10;0.10;;;;;;;;;;6123108;23;20069;-79
2023/12/27 06:10:05;;;;;;;0.10;0.10;;;;;;;;;;6098576;23;20027;-79
2023/12/27 06:12:32;;;;;;;0.10;0.10;;;;;;;;;;6123977;23;20026;-78
2023/12/27 06:14:59;;;;;;;0.10;0.10;;;;;;;;;;6120884;23;20030;-78
2023/12/27 06:17:26;;;;;;;1.02;0.90;;;;;;;;;;6123514;23;20054;-79
2023/12/27 06:19:52;;;;;;;0.10;0.10;;;;;;;;;;6123931;23;20546;-78
2023/12/27 06:22:19;;;;;;;0.30;0.30;;;;;;;;;;6123754;23;20030;-78
2023/12/27 06:24:45;;;;;;;0.10;0.10;;;;;;;;;;6123462;23;20026;-78
2023/12/27 06:27:13;;;;;;;0.10;0.10;;;;;;;;;;6122819;23;20030;-78
2023/12/27 06:29:40;;;;;;;2.75;2.55;;;;;;;;;;6123544;23;20082;-78
2023/12/27 06:32:06;;;;;;;0.10;0.10;;;;;;;;;;6122886;23;20030;-78
2023/12/27 06:34:32;;;;;;;0.10;0.10;;;;;;;;;;6123422;23;20034;-80
2023/12/27 06:36:59;;;;;;;0.10;0.10;;;;;;;;;;6123983;23;20033;-79
2023/12/27 06:39:28;;;;;;;0.10;0.10;;;;;;;;;;6123623;23;20030;-79
2023/12/27 06:41:54;;;;;;;0.10;0.10;;;;;;;;;;6124353;23;20523;-79
2023/12/27 06:44:21;;;;;;;0.60;0.60;;;;;;;;;;6122758;23;20039;-79
2023/12/27 06:46:49;;;;;;;0.10;0.10;;;;;;;;;;6122881;23;20030;-80
2023/12/27 06:49:15;;;;;;;0.13;0.13;;;;;;;;;;6097621;23;20495;-80
2023/12/27 06:51:42;;;;;;;0.10;0.10;;;;;;;;;;6122565;23;20030;-79
2023/12/27 06:54:09;;;;;;;0.10;0.10;;;;;;;;;;6122834;23;20030;-79
2023/12/27 06:56:38;;;;;;;0.77;0.73;;;;;;;;;;6123258;23;20037;-79
2023/12/27 06:59:05;;;;;;;0.10;0.10;;;;;;;;;;6126053;23;20030;-81
2023/12/27 07:01:31;;;;;;;0.10;0.10;;;;;;;;;;6125674;23;20479;-79
2023/12/27 07:03:57;;;;;;;0.13;0.13;;;;;;;;;;6125845;23;20619;-80
2023/12/27 07:06:24;;;;;;;0.38;0.38;;;;;;;;;;6125066;23;20027;-80
2023/12/27 07:08:50;;;;;;;0.20;0.20;;;;;;;;;;6127305;23;20018;-82
2023/12/27 07:11:18;;;;;;;0.10;0.10;;;;;;;;;;6128102;23;20078;-81
2023/12/27 07:13:46;;;;;;;0.10;0.10;;;;;;;;;;6128351;23;20109;-83
2023/12/27 07:16:13;;;;;;;0.10;0.10;;;;;;;;;;6127416;23;20050;-82
2023/12/27 07:18:40;;;;;;;0.10;0.10;;;;;;;;;;6126610;23;20538;-81
2023/12/27 07:21:06;;;;;;;0.10;0.10;;;;;;;;;;6125130;23;20086;-81
2023/12/27 07:23:33;;;;;;;0.10;0.10;;;;;;;;;;6124528;23;20033;-80
2023/12/27 07:25:59;;;;;;;0.10;0.10;;;;;;;;;;6124164;23;20055;-81
2023/12/27 07:28:26;;;;;;;0.10;0.10;;;;;;;;;;6120327;23;20558;-81
2023/12/27 07:30:52;;;;;;;0.55;0.52;;;;;;;;;;6127689;23;20082;-81
2023/12/27 07:33:19;;;;;;;0.10;0.10;;;;;;;;;;6126699;23;20062;-81
2023/12/27 07:35:46;;;;;;;0.10;0.10;;;;;;;;;;6126396;23;20081;-81
2023/12/27 07:38:13;;;;;;;0.80;0.80;;;;;;;;;;6125870;23;20034;-82
2023/12/27 07:40:40;;;;;;;0.10;0.10;;;;;;;;;;6126379;23;20108;-80
2023/12/27 07:43:09;;;;;;;0.10;0.10;;;;;;;;;;6125330;23;20049;-82
2023/12/27 07:45:36;;;;;;;0.10;0.10;;;;;;;;;;6096695;23;20852;-81
2023/12/27 07:48:02;;;;;;;0.10;0.10;;;;;;;;;;6122695;23;20106;-80
2023/12/27 07:50:29;;;;;;;0.10;0.10;;;;;;;;;;6123625;23;20353;-79
2023/12/27 07:52:56;;;;;;;0.10;0.10;;;;;;;;;;6122738;23;20035;-79
2023/12/27 07:55:22;;;;;;;0.10;0.10;;;;;;;;;;6119123;23;20031;-78
2023/12/27 07:57:49;;;;;;;0.10;0.10;;;;;;;;;;6096421;23;20082;-78
2023/12/27 08:00:16;;;;;;;0.10;0.10;;;;;;;;;;6122725;23;20069;-79
2023/12/27 08:02:44;;;;;;;0.10;0.10;;;;;;;;;;6097355;23;20349;-79
2023/12/27 08:05:10;;;;;;;0.10;0.10;;;;;;;;;;6119731;23;20352;-79
2023/12/27 08:07:38;;;;;;;0.10;0.10;;;;;;;;;;6120793;23;20125;-80
2023/12/27 08:10:06;;;;;;;0.10;0.10;;;;;;;;;;6122947;23;20027;-78
2023/12/27 08:12:32;;;;;;;0.10;0.10;;;;;;;;;;6123095;23;21091;-78
2023/12/27 08:14:59;;;;;;;0.10;0.10;;;;;;;;;;6122238;23;20479;-78
2023/12/27 08:17:26;;;;;;;0.10;0.10;;;;;;;;;;6122448;23;20085;-78
2023/12/27 08:19:53;;;;;;;0.22;0.22;;;;;;;;;;6122547;23;20081;-80
2023/12/27 08:22:20;;;;;;;0.13;0.13;;;;;;;;;;6121787;23;20026;-78
2023/12/27 08:24:47;;;;;;;0.10;0.10;;;;;;;;;;6123004;23;20033;-80
2023/12/27 08:27:13;;;;;;;0.10;0.10;;;;;;;;;;6122314;23;20034;-78
2023/12/27 08:29:41;;;;;;;0.10;0.10;;;;;;;;;;6121746;23;20031;-78
2023/12/27 08:32:08;;;;;;;0.10;0.10;;;;;;;;;;6121122;23;20097;-78
2023/12/27 08:34:34;;;;;;;0.30;0.30;;;;;;;;;;6120103;23;20026;-80
2023/12/27 08:37:02;;;;;;;0.10;0.10;;;;;;;;;;6122276;23;20026;-77
2023/12/27 08:39:28;;;;;;;0.15;0.15;;;;;;;;;;6124522;23;20069;-84
2023/12/27 08:41:55;;;;;;;0.10;0.10;;;;;;;;;;6127130;23;20029;-82
2023/12/27 08:44:21;;;;;;;0.10;0.10;;;;;;;;;;6125223;23;20030;-82
2023/12/27 08:46:47;;;;;;;0.10;0.10;;;;;;;;;;6125185;23;20030;-82
2023/12/27 08:49:14;;;;;;;0.10;0.10;;;;;;;;;;6125269;23;20026;-82
2023/12/27 08:51:40;;;;;;;0.10;0.10;;;;;;;;;;6127268;23;20131;-83
2023/12/27 08:54:07;;;;;;;0.10;0.10;;;;;;;;;;6125370;23;20030;-82
2023/12/27 08:56:33;;;;;;;0.10;0.10;;;;;;;;;;6126090;23;20156;-82
2023/12/27 08:59:00;;;;;;;0.10;0.10;;;;;;;;;;6126543;23;20030;-80
2023/12/27 09:01:26;;;;;;;0.10;0.10;;;;;;;;;;6124313;23;20026;-82
2023/12/27 09:03:53;;;;;;;4.38;1.10;;;;;;;;;;6126331;23;20026;-82
2023/12/27 09:06:19;;;;;;;0.10;0.10;;;;;;;;;;6124525;23;20030;-83
2023/12/27 09:08:49;;;;;;;0.55;0.55;;;;;;;;;;6126134;23;20026;-82
2023/12/27 09:11:18;;;;;;;0.10;0.10;;;;;;;;;;6125580;23;20034;-81
2023/12/27 09:14:05;;;;;;;0.22;0.22;;;;;;;;;;6121141;23;20041;-81
2023/12/27 09:16:32;;;;;;;0.10;0.10;;;;;;;;;;6122547;23;20026;-81
2023/12/27 09:18:59;;;;;;;0.10;0.10;;;;;;;;;;6122071;23;20042;-83
2023/12/27 09:21:26;;;;;;;0.40;0.40;;;;;;;;;;6122757;23;20031;-81
2023/12/27 09:23:53;;;;;;;0.10;0.10;;;;;;;;;;6121847;23;20037;-82
2023/12/27 09:26:20;;;;;;;0.10;0.10;;;;;;;;;;6123660;23;20038;-81
2023/12/27 09:28:46;;;;;;;0.68;0.68;;;;;;;;;;6125145;23;20025;-81
2023/12/27 09:31:13;;;;;;;0.10;0.10;;;;;;;;;;6100629;23;20086;-81
2023/12/27 09:33:42;;;;;;;1.95;1.85;;;;;;;;;;6124574;23;20057;-83
2023/12/27 09:36:09;;;;;;;0.10;0.10;;;;;;;;;;6124595;23;20026;-81
2023/12/27 09:38:37;;;;;;;0.10;0.10;;;;;;;;;;6126085;23;20022;-81
2023/12/27 09:41:06;;;;;;;;;;;;;;;;;;6126950;23;20527;-81
2023/12/27 09:43:33;;;;;;;0.10;0.10;;;;;;;;;;6124177;23;45511;-80
2023/12/27 09:46:00;;;;;;;0.10;0.10;;;;;;;;;;6098304;23;20510;-82
2023/12/27 09:48:27;;;;;;;0.25;0.25;;;;;;;;;;6124897;23;20037;-81
2023/12/27 09:50:56;;;;;;;0.10;0.10;;;;;;;;;;6125749;23;20033;-80
2023/12/27 09:53:23;;;;;;;0.32;0.32;;;;;;;;;;6125688;23;20014;-81
2023/12/27 09:55:50;;;;;;;0.10;0.10;;;;;;;;;;6125581;23;20471;-81
2023/12/27 09:58:17;;;;;;;0.10;0.10;;;;;;;;;;6125957;23;20101;-81
2023/12/27 10:00:45;;;;;;;0.10;0.10;;;;;;;;;;6126763;23;20030;-80
2023/12/27 10:03:14;;;;;;;0.10;0.10;;;;;;;;;;6126311;23;20026;-81
2023/12/27 10:05:41;;;;;;;0.10;0.10;;;;;;;;;;6100235;23;20041;-83
2023/12/27 10:08:08;;;;;;;0.10;0.10;;;;;;;;;;6126156;23;20030;-81
2023/12/27 10:10:35;;;;;;;0.10;0.10;;;;;;;;;;6125874;23;20419;-81
2023/12/27 10:13:02;;;;;;;0.10;0.10;;;;;;;;;;6100411;23;20034;-83
2023/12/27 10:15:29;;;;;;;0.20;0.20;;;;;;;;;;6125310;23;20030;-80
2023/12/27 10:17:55;;;;;;;0.10;0.10;;;;;;;;;;6126246;23;20022;-80
2023/12/27 10:20:41;;;;;;;0.10;0.10;;;;;;;;;;6100436;23;20483;-81
2023/12/27 10:23:07;;;;;;;0.10;0.10;;;;;;;;;;6126764;23;20053;-81
2023/12/27 10:25:35;;;;;;;0.20;0.20;;;;;;;;;;6126178;23;20034;-80
2023/12/27 10:28:01;;;;;;;0.10;0.10;;;;;;;;;;6126246;23;20031;-80
2023/12/27 10:30:28;;;;;;;0.10;0.10;;;;;;;;;;6126543;23;20543;-81
2023/12/27 10:33:01;;;;;;;0.15;0.15;;;;;;;;;;6125639;23;20031;-82
2023/12/27 10:35:31;;;;;;;0.10;0.10;;;;;;;;;;6125910;23;20475;-83
2023/12/27 10:37:58;;;;;;;0.10;0.10;;;;;;;;;;6127478;23;20116;-81
2023/12/27 10:40:25;;;;;;;0.68;0.68;;;;;;;;;;6127450;23;20462;-81
2023/12/27 10:42:52;;;;;;;0.10;0.10;;;;;;;;;;6127299;23;20039;-81
2023/12/27 10:45:19;;;;;;;0.10;0.10;;;;;;;;;;6101424;23;20035;-80
2023/12/27 10:47:47;;;;;;;0.10;0.10;;;;;;;;;;6127413;23;20034;-81
2023/12/27 10:50:15;;;;;;;0.10;0.10;;;;;;;;;;6126732;23;20031;-80
2023/12/27 10:52:44;;;;;;;0.10;0.10;;;;;;;;;;6101537;23;20061;-80
2023/12/27 10:55:12;;;;;;;0.10;0.10;;;;;;;;;;6127420;23;20490;-80
2023/12/27 10:57:40;;;;;;;0.10;0.10;;;;;;;;;;6127154;23;20081;-81
2023/12/27 11:00:08;;;;;;;0.10;0.10;;;;;;;;;;6126607;23;20030;-82
2023/12/27 11:02:38;;;;;;;0.10;0.10;;;;;;;;;;6128065;23;20055;-80
2023/12/27 11:05:06;;;;;;;0.32;0.32;;;;;;;;;;6128707;23;20022;-80
2023/12/27 11:07:35;;;;;;;0.10;0.10;;;;;;;;;;6128979;23;20026;-83
2023/12/27 11:10:05;;;;;;;0.40;0.40;;;;;;;;;;6129134;23;20085;-80
2023/12/27 11:12:33;;;;;;;0.10;0.10;;;;;;;;;;6128831;23;20468;-81
2023/12/27 11:15:03;;;;;;;0.10;0.10;;;;;;;;;;6127117;23;20469;-83
2023/12/27 11:17:31;;;;;;;0.10;0.10;;;;;;;;;;6127771;23;20031;-81
2023/12/27 11:19:58;;;;;;;0.10;0.10;;;;;;;;;;6127487;23;20066;-82
2023/12/27 11:22:24;;;;;;;0.10;0.10;;;;;;;;;;6101893;23;20996;-81
2023/12/27 11:24:50;;;;;;;0.10;0.10;;;;;;;;;;6126788;23;20030;-81
2023/12/27 11:27:20;;;;;;;0.10;0.10;;;;;;;;;;6127432;23;20035;-81
2023/12/27 11:29:46;;;;;;;0.85;0.63;;;;;;;;;;6127479;23;20886;-81
2023/12/27 11:32:14;;;;;;;0.10;0.10;;;;;;;;;;6127227;23;20042;-80
2023/12/27 11:34:41;;;;;;;0.10;0.10;;;;;;;;;;6126830;23;20027;-81
2023/12/27 11:37:07;;;;;;;0.10;0.10;;;;;;;;;;6127311;23;20529;-81
2023/12/27 11:39:35;;;;;;;0.10;0.10;;;;;;;;;;6126948;23;20106;-81
2023/12/27 11:42:02;;;;;;;0.10;0.10;;;;;;;;;;6126543;23;20101;-81
2023/12/27 11:44:41;;;;;;;0.10;0.10;;;;;;;;;;6125540;23;20105;-81
2023/12/27 11:47:13;;;;;;;0.10;0.10;;;;;;;;;;6101475;23;20030;-80
2023/12/27 11:49:40;;;;;;;0.10;0.10;;;;;;;;;;6126727;23;20026;-80
2023/12/27 11:52:07;;;;;;;0.38;0.38;;;;;;;;;;6126459;23;20035;-80
2023/12/27 11:54:33;;;;;;;0.10;0.10;;;;;;;;;;6126262;23;20156;-82
2023/12/27 11:57:00;;;;;;;0.10;0.10;;;;;;;;;;6127236;23;20030;-82
2023/12/27 11:59:27;;;;;;;0.10;0.10;;;;;;;;;;6125972;23;20537;-80
2023/12/27 12:01:55;;;;;;;0.10;0.10;;;;;;;;;;6124669;23;20026;-79
2023/12/27 12:04:35;;;;;;;0.10;0.10;;;;;;;;;;6126064;23;20030;-80
2023/12/27 12:07:13;;;;;;;0.10;0.10;;;;;;;;;;6100936;23;20510;-80
2023/12/27 12:09:39;;;;;;;0.20;0.20;;;;;;;;;;6126634;23;20030;-80
2023/12/27 12:12:10;;;;;;;0.20;0.20;;;;;;;;;;6127166;23;20774;-80
2023/12/27 12:14:38;;;;;;;0.10;0.10;;;;;;;;;;6124960;23;20349;-82
2023/12/27 12:17:06;;;;;;;0.10;0.10;;;;;;;;;;6123418;23;20030;-81
2023/12/27 12:19:33;;;;;;;0.28;0.28;;;;;;;;;;6124491;23;20408;-83
2023/12/27 12:22:01;;;;;;;0.10;0.10;;;;;;;;;;6099610;23;20494;-80
2023/12/27 12:24:27;;;;;;;0.10;0.10;;;;;;;;;;6126110;23;20030;-82
2023/12/27 12:26:55;;;;;;;0.10;0.10;;;;;;;;;;6099540;23;20035;-80
2023/12/27 12:29:25;;;;;;;0.10;0.10;;;;;;;;;;6125168;23;20026;-81
2023/12/27 12:31:53;;;;;;;0.20;0.20;;;;;;;;;;6125775;23;20026;-82
2023/12/27 12:34:20;;;;;;;0.10;0.10;;;;;;;;;;6124649;23;20026;-81
2023/12/27 12:36:47;;;;;;;0.10;0.10;;;;;;;;;;6124142;23;20105;-81
2023/12/27 12:39:16;;;;;;;0.10;0.10;;;;;;;;;;6125096;23;20453;-82
2023/12/27 12:41:43;;;;;;;0.10;0.10;;;;;;;;;;6123554;23;20456;-81
2023/12/27 12:44:10;;;;;;;0.10;0.10;;;;;;;;;;6099501;23;20322;-80
2023/12/27 12:46:36;;;;;;;0.10;0.10;;;;;;;;;;6124580;23;20069;-80
2023/12/27 12:49:03;;;;;;;0.10;0.10;;;;;;;;;;6124779;23;20495;-81
2023/12/27 12:51:30;;;;;;;0.20;0.20;;;;;;;;;;6099044;23;20086;-80
2023/12/27 12:53:56;;;;;;;0.10;0.10;;;;;;;;;;6125090;23;20034;-80
2023/12/27 12:56:23;;;;;;;0.10;0.10;;;;;;;;;;6125424;23;20034;-81
2023/12/27 12:58:50;;;;;;;0.10;0.10;;;;;;;;;;6123863;23;20034;-80
2023/12/27 13:01:16;;;;;;;0.10;0.10;;;;;;;;;;6124585;23;20360;-80
2023/12/27 13:03:45;;;;;;;0.10;0.10;;;;;;;;;;6124065;23;20082;-80
2023/12/27 13:06:15;;;;;;;0.10;0.10;;;;;;;;;;6097974;23;20034;-80
2023/12/27 13:08:49;;;;;;;0.17;0.17;;;;;;;;;;6124476;23;20030;-81
2023/12/27 13:11:17;;;;;;;0.10;0.10;;;;;;;;;;6124823;23;20116;-79
2023/12/27 13:13:44;;;;;;;0.10;0.10;;;;;;;;;;6122978;23;20034;-79
2023/12/27 13:16:11;;;;;;;0.10;0.10;;;;;;;;;;6124036;23;20027;-80
2023/12/27 13:18:38;;;;;;;0.10;0.10;;;;;;;;;;6124786;23;20479;-80
2023/12/27 13:21:13;;;;;;;0.10;0.10;;;;;;;;;;6124387;23;20032;-80
2023/12/27 13:23:39;;;;;;;0.22;0.22;;;;;;;;;;6124414;23;20479;-80
2023/12/27 13:26:06;;;;;;;0.10;0.10;;;;;;;;;;6124137;23;20030;-82
2023/12/27 13:28:33;;;;;;;0.10;0.10;;;;;;;;;;6097443;23;20673;-79
2023/12/27 13:30:59;;;;;;;0.10;0.10;;;;;;;;;;6123857;23;20480;-83
2023/12/27 13:33:27;;;;;;;0.10;0.10;;;;;;;;;;6098209;23;20034;-82
2023/12/27 13:35:53;;;;;;;0.10;0.10;;;;;;;;;;6123429;23;20037;-80
2023/12/27 13:38:20;;;;;;;0.10;0.10;;;;;;;;;;6123892;23;20026;-81
2023/12/27 13:40:46;;;;;;;0.10;0.10;;;;;;;;;;6123924;23;20502;-81
2023/12/27 13:43:14;;;;;;;0.10;0.10;;;;;;;;;;6124028;23;20033;-80
2023/12/27 13:45:41;;;;;;;0.10;0.10;;;;;;;;;;6123506;23;20053;-81
2023/12/27 13:48:07;;;;;;;0.10;0.10;;;;;;;;;;6123971;23;20030;-80
2023/12/27 13:50:34;;;;;;;0.10;0.10;;;;;;;;;;6122117;23;20026;-80
2023/12/27 13:53:01;;;;;;;0.40;0.40;;;;;;;;;;6123517;23;20036;-82
2023/12/27 13:55:29;;;;;;;0.10;0.10;;;;;;;;;;6123809;23;20023;-81
2023/12/27 13:57:56;;;;;;;0.10;0.10;;;;;;;;;;6123967;23;20061;-80
2023/12/27 14:00:23;;;;;;;0.10;0.10;;;;;;;;;;6124795;23;20030;-80
2023/12/27 14:02:50;;;;;;;0.20;0.20;;;;;;;;;;6123998;23;20050;-80
2023/12/27 14:05:17;;;;;;;0.10;0.10;;;;;;;;;;6123614;23;20034;-80
2023/12/27 14:07:44;;;;;;;0.10;0.10;;;;;;;;;;6123958;23;20123;-81
2023/12/27 14:10:12;;;;;;;0.20;0.20;;;;;;;;;;6123407;23;20034;-80
2023/12/27 14:12:42;;;;;;;0.88;0.65;;;;;;;;;;6123526;23;20041;-80
2023/12/27 14:15:10;;;;;;;0.10;0.10;;;;;;;;;;6123658;23;20030;-80
2023/12/27 14:17:40;;;;;;;0.10;0.10;;;;;;;;;;6123443;23;20083;-81
2023/12/27 14:20:07;;;;;;;0.10;0.10;;;;;;;;;;6123457;23;20098;-81
2023/12/27 14:22:33;;;;;;;0.10;0.10;;;;;;;;;;6098604;23;20613;-80
2023/12/27 14:25:01;;;;;;;0.10;0.10;;;;;;;;;;6123958;23;20430;-80
2023/12/27 14:27:27;;;;;;;0.10;0.10;;;;;;;;;;6123680;23;20026;-80
2023/12/27 14:29:53;;;;;;;0.17;0.17;;;;;;;;;;6122401;23;20062;-80
2023/12/27 14:32:21;;;;;;;0.10;0.10;;;;;;;;;;6123574;23;20030;-80
2023/12/27 14:34:47;;;;;;;0.10;0.10;;;;;;;;;;6097201;23;20030;-80
2023/12/27 14:37:14;;;;;;;0.10;0.10;;;;;;;;;;6123178;23;20031;-80
2023/12/27 14:39:41;;;;;;;0.00;0.00;;;;;;;;;;6123324;23;20049;-80
2023/12/27 14:42:07;;;;;;;0.10;0.10;;;;;;;;;;6123127;23;20038;-82